Time;durP1;ratioP1;P1;durP2;ratioP2;P2;SDS_P1;SDS_P2;PMS_P1;PMS_P2;Temp;Humidity;BMP_temperature;BMP_pressure;BME280_temperature;BME280_humidity;BME280_pressure;Samples;Min_cycle;Max_cycle;Signal;HPM_P1;HPM_P2
2023/08/08 00:00:27;;;;;;;4.68;3.83;;;22.00;99.90;;;;;;6234150;28;87937;-63
2023/08/08 00:03:31;;;;;;;5.82;4.18;;;22.00;99.90;;;;;;6234595;28;89195;-63
2023/08/08 00:06:33;;;;;;;4.65;3.70;;;22.00;99.90;;;;;;6230996;28;89032;-63
2023/08/08 00:09:35;;;;;;;7.82;4.20;;;22.00;99.90;;;;;;6212094;28;88157;-63
2023/08/08 00:12:37;;;;;;;5.05;3.72;;;22.00;99.90;;;;;;6224243;28;89023;-63
2023/08/08 00:15:39;;;;;;;7.20;4.50;;;22.00;99.90;;;;;;6212784;28;87179;-63
2023/08/08 00:18:42;;;;;;;5.70;3.78;;;22.00;99.90;;;;;;6216600;28;88929;-63
2023/08/08 00:21:44;;;;;;;4.22;3.42;;;22.00;99.90;;;;;;6222641;28;89027;-64
2023/08/08 00:24:46;;;;;;;4.72;3.65;;;22.00;99.90;;;;;;6225323;28;90040;-63
2023/08/08 00:27:48;;;;;;;7.28;4.22;;;22.00;99.90;;;;;;6233436;28;89044;-63
2023/08/08 00:30:50;;;;;;;5.88;4.20;;;22.00;99.90;;;;;;6257599;28;89149;-63
2023/08/08 00:33:53;;;;;;;5.47;3.40;;;22.00;99.90;;;;;;6229617;28;88732;-64
2023/08/08 00:36:55;;;;;;;3.72;3.40;;;22.00;99.90;;;;;;6210082;28;89032;-63
2023/08/08 00:39:57;;;;;;;4.75;3.25;;;21.90;99.90;;;;;;6222439;28;87959;-63
2023/08/08 00:42:59;;;;;;;4.03;3.25;;;21.90;99.90;;;;;;6239914;28;89782;-63
2023/08/08 00:46:01;;;;;;;4.03;3.20;;;21.90;99.90;;;;;;6230859;28;88305;-63
2023/08/08 00:49:04;;;;;;;3.65;3.20;;;21.90;99.90;;;;;;6222798;28;89149;-63
2023/08/08 00:52:07;;;;;;;4.68;3.50;;;21.90;99.90;;;;;;6238998;28;89357;-63
2023/08/08 00:55:10;;;;;;;4.75;3.50;;;22.00;99.90;;;;;;6236821;28;89190;-63
2023/08/08 00:58:12;;;;;;;4.25;3.40;;;22.00;99.90;;;;;;6239820;28;88410;-63
2023/08/08 01:01:14;;;;;;;3.63;3.15;;;21.90;99.90;;;;;;6233735;27;88986;-63
2023/08/08 01:04:18;;;;;;;4.60;3.42;;;22.00;99.90;;;;;;6234066;28;89320;-63
2023/08/08 01:07:27;;;;;;;4.10;3.22;;;21.90;99.90;;;;;;6251557;27;89859;-64
2023/08/08 01:10:34;;;;;;;5.60;3.75;;;21.90;99.90;;;;;;6232211;28;89027;-63
2023/08/08 01:13:38;;;;;;;3.08;2.80;;;22.00;99.80;;;;;;6223359;28;87944;-63
2023/08/08 01:16:41;;;;;;;4.25;3.40;;;21.90;99.70;;;;;;6230185;28;87361;-63
2023/08/08 01:19:45;;;;;;;3.72;3.15;;;21.90;99.70;;;;;;6232190;28;89018;-63
2023/08/08 01:22:56;;;;;;;4.13;3.30;;;21.90;99.70;;;;;;6235657;28;89828;-64
2023/08/08 01:26:00;;;;;;;5.40;3.30;;;21.90;99.60;;;;;;6237121;27;90017;-63
2023/08/08 01:29:02;;;;;;;4.35;3.08;;;21.90;99.60;;;;;;6232797;28;89381;-63
2023/08/08 01:32:05;;;;;;;4.60;3.08;;;21.90;99.60;;;;;;6216524;28;89062;-63
2023/08/08 01:35:09;;;;;;;4.57;3.40;;;21.90;99.50;;;;;;6230565;28;89138;-63
2023/08/08 01:38:25;;;;;;;4.18;3.22;;;21.90;99.60;;;;;;6226415;27;89328;-63
2023/08/08 01:41:30;;;;;;;4.13;3.03;;;21.90;99.50;;;;;;6245096;28;89069;-63
2023/08/08 01:44:32;;;;;;;4.63;3.33;;;21.90;99.50;;;;;;6245240;27;89199;-63
2023/08/08 01:47:34;;;;;;;6.20;3.30;;;21.90;99.60;;;;;;6242987;27;88721;-64
2023/08/08 01:50:37;;;;;;;3.38;2.90;;;21.90;99.50;;;;;;6236992;27;88978;-64
2023/08/08 01:53:39;;;;;;;3.22;2.65;;;21.90;99.50;;;;;;6246471;28;89078;-63
2023/08/08 01:56:42;;;;;;;4.10;2.95;;;21.90;99.40;;;;;;6231257;27;89966;-63
2023/08/08 01:59:46;;;;;;;4.13;2.95;;;21.90;99.30;;;;;;6216905;28;89077;-64
2023/08/08 02:02:48;;;;;;;4.10;3.15;;;21.90;99.20;;;;;;6230509;28;88024;-63
2023/08/08 02:05:50;;;;;;;3.42;2.72;;;21.90;99.10;;;;;;6245593;28;89081;-64
2023/08/08 02:08:52;;;;;;;5.07;3.30;;;21.80;99.00;;;;;;6233629;27;89055;-63
2023/08/08 02:11:55;;;;;;;4.07;2.88;;;21.80;99.00;;;;;;6230610;28;90039;-63
2023/08/08 02:14:57;;;;;;;3.97;3.03;;;21.90;99.00;;;;;;6213452;28;87947;-64
2023/08/08 02:18:00;;;;;;;3.90;2.85;;;21.90;99.00;;;;;;6217346;28;88600;-63
2023/08/08 02:21:02;;;;;;;3.65;2.75;;;21.90;99.00;;;;;;6243945;28;89033;-64
2023/08/08 02:24:05;;;;;;;3.17;2.60;;;21.90;99.00;;;;;;6230358;28;89589;-64
2023/08/08 02:27:08;;;;;;;3.72;2.88;;;21.90;98.90;;;;;;6227296;28;90357;-64
2023/08/08 02:30:12;;;;;;;6.07;3.42;;;21.80;98.90;;;;;;6221707;28;89131;-63
2023/08/08 02:33:14;;;;;;;6.60;3.55;;;21.80;98.80;;;;;;6219836;28;88985;-64
2023/08/08 02:36:16;;;;;;;5.68;3.25;;;21.80;98.80;;;;;;6231919;28;89105;-64
2023/08/08 02:39:17;;;;;;;3.28;2.65;;;21.80;98.80;;;;;;6221158;28;89475;-63
2023/08/08 02:42:21;;;;;;;9.18;3.90;;;21.80;98.80;;;;;;6222878;28;89360;-64
2023/08/08 02:45:23;;;;;;;5.60;3.03;;;21.80;98.70;;;;;;6231750;28;88999;-64
2023/08/08 02:48:25;;;;;;;3.50;2.47;;;21.80;98.70;;;;;;6257056;27;88288;-63
2023/08/08 02:51:27;;;;;;;2.70;2.30;;;21.80;98.80;;;;;;6222511;27;89554;-64
2023/08/08 02:54:29;;;;;;;4.35;2.92;;;21.80;98.60;;;;;;6229003;27;89129;-63
2023/08/08 02:57:32;;;;;;;3.92;2.60;;;21.80;98.50;;;;;;6228389;28;90075;-64
2023/08/08 03:00:34;;;;;;;3.08;2.38;;;21.80;98.50;;;;;;6208284;28;89107;-64
2023/08/08 03:03:36;;;;;;;2.83;2.45;;;21.80;98.50;;;;;;6219569;28;90048;-64
2023/08/08 03:06:38;;;;;;;3.80;2.80;;;21.80;98.40;;;;;;6214271;28;89038;-63
2023/08/08 03:09:40;;;;;;;3.17;2.55;;;21.80;98.30;;;;;;6221454;28;89372;-63
2023/08/08 03:12:43;;;;;;;7.72;3.95;;;21.80;98.40;;;;;;6221237;28;88113;-63
2023/08/08 03:15:45;;;;;;;6.55;3.33;;;21.80;98.40;;;;;;6215822;28;89222;-63
2023/08/08 03:18:47;;;;;;;3.13;2.53;;;21.80;98.30;;;;;;6220236;28;88322;-63
2023/08/08 03:21:49;;;;;;;4.95;2.60;;;21.80;98.20;;;;;;6206592;28;89868;-63
2023/08/08 03:24:51;;;;;;;4.97;2.65;;;21.70;98.20;;;;;;6212185;28;89254;-63
2023/08/08 03:27:54;;;;;;;2.88;2.33;;;21.80;98.20;;;;;;6222647;28;90071;-63
2023/08/08 03:30:56;;;;;;;3.40;2.30;;;21.80;98.30;;;;;;6231961;28;87945;-63
2023/08/08 03:33:58;;;;;;;4.43;2.72;;;21.70;98.20;;;;;;6229142;28;88667;-63
2023/08/08 03:37:00;;;;;;;4.40;3.00;;;21.80;98.20;;;;;;6249779;28;88948;-63
2023/08/08 03:40:02;;;;;;;2.97;2.38;;;21.70;98.20;;;;;;6233027;27;89363;-63
2023/08/08 03:43:06;;;;;;;3.13;2.42;;;21.80;98.20;;;;;;6229479;28;89126;-63
2023/08/08 03:46:08;;;;;;;2.95;2.15;;;21.70;98.00;;;;;;6232249;27;89190;-63
2023/08/08 03:49:10;;;;;;;3.33;2.40;;;21.80;98.00;;;;;;6218738;28;88339;-63
2023/08/08 03:52:12;;;;;;;2.83;2.35;;;21.80;98.00;;;;;;6225600;28;89114;-63
2023/08/08 03:55:14;;;;;;;6.18;3.30;;;21.70;97.90;;;;;;6245955;28;88273;-63
2023/08/08 03:58:18;;;;;;;5.00;3.17;;;21.70;98.20;;;;;;6226844;27;90051;-63
2023/08/08 04:01:20;;;;;;;3.33;2.63;;;21.70;97.80;;;;;;6210175;28;89036;-62
2023/08/08 04:04:23;;;;;;;4.05;2.85;;;21.70;97.80;;;;;;6216178;28;88933;-64
2023/08/08 04:07:25;;;;;;;4.47;3.42;;;21.70;98.00;;;;;;6206626;28;88261;-66
2023/08/08 04:10:27;;;;;;;4.22;3.13;;;21.80;99.90;;;;;;6217639;28;89202;-64
2023/08/08 04:13:30;;;;;;;6.95;3.95;;;21.80;99.90;;;;;;6213509;28;89346;-64
2023/08/08 04:16:32;;;;;;;5.45;4.03;;;21.80;99.90;;;;;;6225008;28;89321;-64
2023/08/08 04:19:34;;;;;;;4.95;3.95;;;21.90;99.90;;;;;;6221511;28;88366;-64
2023/08/08 04:22:36;;;;;;;6.25;3.90;;;21.90;99.90;;;;;;6229724;28;89041;-64
2023/08/08 04:25:38;;;;;;;5.28;4.05;;;21.90;99.90;;;;;;6226981;28;89053;-65
2023/08/08 04:28:42;;;;;;;5.80;4.40;;;21.90;99.90;;;;;;6224707;28;89981;-66
2023/08/08 04:31:44;;;;;;;8.98;5.55;;;22.00;99.90;;;;;;6224441;28;89040;-65
2023/08/08 04:34:46;;;;;;;9.57;5.88;;;21.90;99.90;;;;;;6230900;28;89322;-65
2023/08/08 04:37:48;;;;;;;6.13;4.70;;;21.90;99.90;;;;;;6211140;28;89086;-65
2023/08/08 04:40:50;;;;;;;5.53;4.10;;;21.90;99.90;;;;;;6220835;28;89282;-65
2023/08/08 04:43:53;;;;;;;5.22;3.55;;;21.90;98.80;;;;;;6231891;28;89198;-65
2023/08/08 04:46:55;;;;;;;4.22;3.17;;;21.90;97.20;;;;;;6231967;28;89384;-66
2023/08/08 04:49:57;;;;;;;6.47;3.40;;;21.90;95.60;;;;;;6245248;27;87234;-66
2023/08/08 04:52:59;;;;;;;4.05;3.20;;;21.90;95.00;;;;;;6221385;28;88967;-66
2023/08/08 04:56:01;;;;;;;5.22;3.30;;;21.90;95.10;;;;;;6230154;28;89423;-66
2023/08/08 04:59:04;;;;;;;6.25;3.70;;;21.90;95.20;;;;;;6220367;28;90354;-65
2023/08/08 05:02:06;;;;;;;6.47;3.95;;;21.90;95.40;;;;;;6219877;28;89300;-65
2023/08/08 05:05:09;;;;;;;6.18;3.80;;;21.90;95.90;;;;;;6236613;27;87949;-65
2023/08/08 05:08:11;;;;;;;5.80;3.88;;;21.90;96.10;;;;;;6231349;28;88536;-65
2023/08/08 05:11:13;;;;;;;6.28;3.90;;;21.90;96.20;;;;;;6222535;28;89071;-65
2023/08/08 05:14:16;;;;;;;5.13;3.33;;;21.90;96.30;;;;;;6223023;28;89076;-65
2023/08/08 05:17:18;;;;;;;5.47;3.55;;;21.80;96.40;;;;;;6221550;28;88989;-65
2023/08/08 05:20:21;;;;;;;4.43;3.67;;;21.90;96.60;;;;;;6220724;28;87957;-65
2023/08/08 05:23:23;;;;;;;5.68;3.85;;;21.90;96.70;;;;;;6226842;28;89249;-65
2023/08/08 05:26:25;;;;;;;7.03;4.20;;;21.90;96.90;;;;;;6220414;28;89474;-66
2023/08/08 05:29:28;;;;;;;5.70;3.85;;;21.80;97.00;;;;;;6224047;28;88910;-65
2023/08/08 05:32:30;;;;;;;4.85;3.80;;;21.80;97.10;;;;;;6251209;28;88981;-65
2023/08/08 05:35:32;;;;;;;4.90;3.97;;;21.90;97.20;;;;;;6249356;27;89078;-65
2023/08/08 05:38:34;;;;;;;4.75;3.80;;;21.90;97.40;;;;;;6236111;28;88595;-65
2023/08/08 05:41:36;;;;;;;8.13;4.50;;;21.90;97.50;;;;;;6239328;27;88984;-65
2023/08/08 05:44:41;;;;;;;5.75;4.18;;;21.90;97.60;;;;;;6231156;28;89039;-65
2023/08/08 05:47:43;;;;;;;6.10;4.47;;;21.80;97.60;;;;;;6219490;28;89071;-65
2023/08/08 05:50:45;;;;;;;5.97;3.80;;;21.90;97.80;;;;;;6229401;28;88332;-65
2023/08/08 05:53:47;;;;;;;6.13;4.45;;;21.90;97.90;;;;;;6234668;28;89063;-65
2023/08/08 05:56:49;;;;;;;7.00;4.78;;;21.80;97.90;;;;;;6248493;27;89089;-65
2023/08/08 05:59:53;;;;;;;9.57;4.88;;;21.80;98.00;;;;;;6220003;28;90026;-66
2023/08/08 06:02:55;;;;;;;5.75;4.15;;;21.90;98.10;;;;;;6224238;28;88496;-66
2023/08/08 06:05:57;;;;;;;6.55;4.70;;;21.90;98.20;;;;;;6230417;28;88425;-65
2023/08/08 06:08:59;;;;;;;6.07;4.53;;;21.80;98.30;;;;;;6230777;28;89423;-65
2023/08/08 06:12:01;;;;;;;5.65;4.70;;;21.90;98.50;;;;;;6238171;28;87946;-65
2023/08/08 06:15:05;;;;;;;5.78;4.72;;;21.90;98.60;;;;;;6242120;27;87797;-65
2023/08/08 06:18:07;;;;;;;7.38;4.82;;;21.80;98.70;;;;;;6237868;27;89394;-65
2023/08/08 06:21:09;;;;;;;8.70;5.30;;;21.90;98.80;;;;;;6232496;28;88346;-66
2023/08/08 06:24:11;;;;;;;7.40;4.68;;;21.90;98.90;;;;;;6235294;28;88375;-65
2023/08/08 06:27:14;;;;;;;5.85;4.70;;;21.90;99.00;;;;;;6244754;28;89114;-65
2023/08/08 06:30:17;;;;;;;8.45;5.25;;;21.90;99.00;;;;;;6216424;28;90379;-66
2023/08/08 06:33:19;;;;;;;8.93;5.20;;;21.90;99.20;;;;;;6221209;28;88221;-66
2023/08/08 06:36:21;;;;;;;6.05;4.55;;;21.90;99.20;;;;;;6230965;28;88980;-66
2023/08/08 06:39:23;;;;;;;6.47;4.55;;;21.90;99.30;;;;;;6243497;28;89839;-65
2023/08/08 06:42:25;;;;;;;6.13;4.43;;;21.90;99.40;;;;;;6239729;28;89163;-65
2023/08/08 06:45:29;;;;;;;5.43;4.80;;;21.90;99.40;;;;;;6234009;27;89010;-66
2023/08/08 06:48:31;;;;;;;6.55;4.80;;;21.90;99.40;;;;;;6218170;28;89036;-65
2023/08/08 06:51:33;;;;;;;7.20;4.90;;;21.90;99.50;;;;;;6230904;27;87191;-66
2023/08/08 06:54:35;;;;;;;5.18;4.32;;;22.00;99.60;;;;;;6220915;28;89067;-65
2023/08/08 06:57:37;;;;;;;6.05;4.60;;;22.00;99.60;;;;;;6209107;28;89266;-65
2023/08/08 07:00:40;;;;;;;8.90;5.50;;;22.00;99.70;;;;;;6211776;28;91192;-65
2023/08/08 07:03:43;;;;;;;6.07;4.45;;;22.00;99.80;;;;;;6230461;28;88912;-66
2023/08/08 07:06:45;;;;;;;6.22;4.55;;;22.00;99.90;;;;;;6219186;28;88917;-65
2023/08/08 07:09:48;;;;;;;5.50;4.88;;;21.90;99.80;;;;;;6233051;28;89093;-65
2023/08/08 07:12:50;;;;;;;7.93;5.10;;;22.00;99.90;;;;;;6222574;27;89053;-66
2023/08/08 07:15:54;;;;;;;6.63;4.80;;;21.90;99.90;;;;;;6222714;28;89067;-66
2023/08/08 07:18:56;;;;;;;5.88;4.70;;;22.00;99.90;;;;;;6218297;28;88948;-66
2023/08/08 07:21:58;;;;;;;5.13;4.38;;;22.00;99.90;;;;;;6230478;28;88243;-66
2023/08/08 07:25:00;;;;;;;4.95;4.22;;;22.00;99.90;;;;;;6232580;28;89084;-66
2023/08/08 07:28:02;;;;;;;5.25;4.70;;;22.00;99.90;;;;;;6240375;28;89445;-66
2023/08/08 07:31:06;;;;;;;4.93;4.43;;;22.00;99.90;;;;;;6229306;27;90012;-65
2023/08/08 07:34:08;;;;;;;5.97;4.75;;;22.00;99.90;;;;;;6247559;27;89144;-66
2023/08/08 07:37:10;;;;;;;5.07;4.57;;;22.00;99.90;;;;;;6229955;28;89132;-66
2023/08/08 07:40:17;;;;;;;6.82;5.00;;;22.00;99.90;;;;;;6228207;28;87946;-66
2023/08/08 07:43:20;;;;;;;5.60;4.50;;;22.00;99.90;;;;;;6245710;28;89065;-66
2023/08/08 07:46:24;;;;;;;5.97;4.88;;;22.00;99.90;;;;;;6232980;27;89007;-66
2023/08/08 07:49:25;;;;;;;5.05;4.55;;;22.00;99.90;;;;;;6234762;28;89207;-66
2023/08/08 07:52:27;;;;;;;6.95;4.53;;;22.00;99.90;;;;;;6227266;28;88596;-66
2023/08/08 07:55:29;;;;;;;4.57;4.07;;;22.00;99.90;;;;;;6234373;28;87971;-66
2023/08/08 07:58:33;;;;;;;5.22;4.47;;;22.00;99.90;;;;;;6238977;28;88986;-65
2023/08/08 08:01:36;;;;;;;6.20;4.55;;;22.00;99.90;;;;;;6235070;27;90290;-65
2023/08/08 08:04:38;;;;;;;4.82;4.35;;;22.00;99.90;;;;;;6228416;28;89293;-65
2023/08/08 08:07:40;;;;;;;6.35;4.90;;;22.00;99.90;;;;;;6235493;28;89053;-65
2023/08/08 08:10:43;;;;;;;5.53;4.47;;;22.00;99.90;;;;;;6232769;28;89022;-65
2023/08/08 08:13:45;;;;;;;5.75;4.85;;;22.00;99.90;;;;;;6230911;28;89028;-65
2023/08/08 08:16:49;;;;;;;5.15;4.53;;;22.10;99.90;;;;;;6236868;27;89144;-65
2023/08/08 08:19:51;;;;;;;6.55;4.32;;;22.00;99.90;;;;;;6218992;28;89031;-65
2023/08/08 08:22:53;;;;;;;6.55;4.78;;;22.00;99.90;;;;;;6231110;28;88707;-65
2023/08/08 08:25:55;;;;;;;5.78;4.63;;;22.10;99.90;;;;;;6234274;28;89042;-65
2023/08/08 08:28:57;;;;;;;5.13;4.47;;;22.00;99.90;;;;;;6232388;28;89331;-65
2023/08/08 08:32:00;;;;;;;6.63;4.75;;;22.00;99.90;;;;;;6233381;28;89885;-65
2023/08/08 08:35:03;;;;;;;7.35;5.03;;;22.00;99.90;;;;;;6227185;28;87962;-65
2023/08/08 08:38:06;;;;;;;6.10;4.35;;;22.00;99.90;;;;;;6237616;27;88942;-64
2023/08/08 08:41:13;;;;;;;6.18;4.38;;;22.00;99.90;;;;;;6219148;28;89230;-64
2023/08/08 08:44:17;;;;;;;5.68;4.57;;;22.00;99.90;;;;;;6232949;28;89128;-64
2023/08/08 08:47:22;;;;;;;4.85;4.30;;;22.00;99.90;;;;;;6236831;28;89009;-64
2023/08/08 08:50:26;;;;;;;5.60;4.60;;;22.10;99.90;;;;;;6239267;27;88337;-65
2023/08/08 08:53:28;;;;;;;6.78;4.80;;;22.00;99.90;;;;;;6225056;28;88358;-65
2023/08/08 08:56:32;;;;;;;5.10;4.60;;;22.10;99.90;;;;;;6223975;28;89035;-65
2023/08/08 08:59:34;;;;;;;5.00;4.35;;;22.00;99.90;;;;;;6229427;28;89287;-65
2023/08/08 09:02:38;;;;;;;4.63;4.05;;;22.10;99.90;;;;;;6235563;28;89986;-65
2023/08/08 09:05:42;;;;;;;6.28;4.63;;;22.10;99.90;;;;;;6235015;27;90101;-65
2023/08/08 09:08:46;;;;;;;5.85;4.60;;;22.10;99.90;;;;;;6245519;27;89370;-65
2023/08/08 09:11:50;;;;;;;6.50;4.38;;;22.10;99.90;;;;;;6221443;28;88894;-65
2023/08/08 09:14:56;;;;;;;5.50;4.57;;;22.10;99.90;;;;;;6224366;28;89069;-64
2023/08/08 09:18:00;;;;;;;5.15;4.22;;;22.00;99.90;;;;;;6227757;28;89178;-63
2023/08/08 09:21:02;;;;;;;5.38;4.30;;;22.10;99.90;;;;;;6222846;28;88977;-66
2023/08/08 09:24:05;;;;;;;5.80;4.43;;;22.10;99.90;;;;;;6219287;28;88206;-65
2023/08/08 09:27:07;;;;;;;4.53;4.00;;;22.10;99.90;;;;;;6215670;28;89012;-65
2023/08/08 09:30:11;;;;;;;7.70;4.60;;;22.10;99.90;;;;;;6229843;28;88980;-64
2023/08/08 09:33:14;;;;;;;7.20;4.82;;;22.10;99.90;;;;;;6219372;28;89884;-66
2023/08/08 09:36:16;;;;;;;6.97;4.45;;;22.10;99.90;;;;;;6221088;28;89066;-65
2023/08/08 09:39:19;;;;;;;4.85;4.35;;;22.10;99.90;;;;;;6223945;28;89550;-66
2023/08/08 09:42:21;;;;;;;5.63;4.40;;;22.20;99.90;;;;;;6228463;28;89100;-65
2023/08/08 09:45:23;;;;;;;6.05;4.30;;;22.30;99.90;;;;;;6226589;28;89005;-65
2023/08/08 09:48:31;;;;;;;8.27;5.38;;;22.30;99.90;;;;;;6215550;28;89018;-65
2023/08/08 09:51:34;;;;;;;5.68;4.70;;;22.30;99.90;;;;;;6217558;28;89072;-65
2023/08/08 09:54:38;;;;;;;9.45;4.95;;;22.30;99.90;;;;;;6231055;28;88297;-65
2023/08/08 09:57:41;;;;;;;5.78;4.50;;;22.30;99.90;;;;;;6229463;28;89285;-65
2023/08/08 10:00:44;;;;;;;10.13;5.97;;;22.40;99.90;;;;;;6226876;28;89021;-65
2023/08/08 10:03:48;;;;;;;6.68;5.00;;;22.40;99.90;;;;;;6223213;28;89985;-65
2023/08/08 10:06:50;;;;;;;6.70;5.15;;;22.50;99.90;;;;;;6218989;28;91348;-65
2023/08/08 10:09:53;;;;;;;5.80;4.85;;;22.50;99.90;;;;;;6225451;28;88060;-65
2023/08/08 10:12:55;;;;;;;5.93;4.57;;;22.50;99.90;;;;;;6220048;28;89029;-65
2023/08/08 10:15:57;;;;;;;6.18;4.88;;;22.60;99.90;;;;;;6220370;28;89085;-65
2023/08/08 10:19:02;;;;;;;6.65;5.00;;;22.60;99.90;;;;;;6226621;28;89085;-65
2023/08/08 10:22:06;;;;;;;7.20;5.00;;;22.60;99.90;;;;;;6224539;28;89019;-65
2023/08/08 10:25:09;;;;;;;6.05;5.00;;;22.70;99.90;;;;;;6229990;28;88504;-65
2023/08/08 10:28:13;;;;;;;5.88;5.18;;;22.70;99.90;;;;;;6230393;28;89020;-65
2023/08/08 10:31:21;;;;;;;5.80;4.95;;;22.70;99.90;;;;;;6217478;28;89391;-65
2023/08/08 10:34:37;;;;;;;6.95;4.85;;;23.00;99.90;;;;;;6227869;28;88949;-65
2023/08/08 10:37:40;;;;;;;5.63;4.80;;;23.20;99.90;;;;;;6218884;28;89007;-65
2023/08/08 10:40:44;;;;;;;5.28;4.55;;;23.30;99.90;;;;;;6216920;28;89315;-64
2023/08/08 10:43:51;;;;;;;5.68;4.63;;;23.40;99.90;;;;;;6226880;28;88058;-66
2023/08/08 10:46:54;;;;;;;6.75;4.80;;;23.30;99.90;;;;;;6227554;28;89006;-66
2023/08/08 10:50:09;;;;;;;5.30;4.63;;;23.30;99.90;;;;;;6221965;28;89037;-66
2023/08/08 10:53:11;;;;;;;6.03;4.65;;;23.20;99.90;;;;;;6225002;28;89204;-66
2023/08/08 10:56:14;;;;;;;4.78;3.83;;;23.20;99.90;;;;;;6217974;28;88277;-65
2023/08/08 10:59:19;;;;;;;5.72;4.18;;;23.10;99.90;;;;;;6218497;28;89113;-66
2023/08/08 11:02:21;;;;;;;5.55;4.35;;;23.10;99.90;;;;;;6219130;28;90215;-67
2023/08/08 11:05:26;;;;;;;11.23;5.97;;;23.10;99.90;;;;;;6228031;28;88913;-67
2023/08/08 11:08:30;;;;;;;7.57;4.95;;;23.10;99.90;;;;;;6228988;28;87927;-67
2023/08/08 11:11:37;;;;;;;6.65;4.80;;;23.00;99.90;;;;;;6218587;28;89002;-68
2023/08/08 11:14:39;;;;;;;4.82;4.07;;;23.00;99.90;;;;;;6220446;28;89060;-67
2023/08/08 11:17:41;;;;;;;6.13;4.15;;;23.00;99.90;;;;;;6219347;28;89059;-66
2023/08/08 11:20:45;;;;;;;6.15;3.95;;;23.00;99.90;;;;;;6226069;28;89061;-67
2023/08/08 11:23:48;;;;;;;5.72;4.65;;;22.90;99.90;;;;;;6212064;28;89127;-67
2023/08/08 11:26:51;;;;;;;4.20;3.80;;;22.90;99.90;;;;;;6217622;28;88342;-67
2023/08/08 11:29:53;;;;;;;4.38;3.75;;;22.90;99.90;;;;;;6211218;28;89198;-66
2023/08/08 11:32:55;;;;;;;4.20;3.70;;;22.90;99.90;;;;;;6215060;28;89137;-66
2023/08/08 11:35:59;;;;;;;4.97;3.60;;;22.90;99.90;;;;;;6228605;28;90409;-66
2023/08/08 11:39:07;;;;;;;6.32;4.25;;;22.90;99.90;;;;;;6228569;28;89479;-66
2023/08/08 11:42:09;;;;;;;7.65;4.53;;;22.80;99.90;;;;;;6227042;28;88978;-66
2023/08/08 11:45:12;;;;;;;5.32;3.78;;;22.90;99.90;;;;;;6219405;28;89152;-66
2023/08/08 11:48:14;;;;;;;7.93;4.47;;;22.90;99.90;;;;;;6233590;28;89033;-66
2023/08/08 11:51:18;;;;;;;7.32;3.92;;;22.80;99.90;;;;;;6224506;28;89051;-66
2023/08/08 11:54:20;;;;;;;5.10;3.67;;;22.80;99.90;;;;;;6226399;28;89084;-66
2023/08/08 11:57:22;;;;;;;3.80;3.40;;;22.80;99.90;;;;;;6226827;28;88282;-66
2023/08/08 12:00:28;;;;;;;4.10;3.70;;;22.80;99.90;;;;;;6224871;28;89139;-66
2023/08/08 12:03:30;;;;;;;4.07;3.35;;;22.80;99.90;;;;;;6235049;28;89447;-66
2023/08/08 12:06:34;;;;;;;6.57;4.00;;;22.80;99.90;;;;;;6222538;28;90119;-66
2023/08/08 12:09:38;;;;;;;5.05;4.13;;;22.70;99.90;;;;;;6230231;28;88265;-66
2023/08/08 12:12:40;;;;;;;4.53;3.70;;;22.70;99.90;;;;;;6215999;28;89140;-66
2023/08/08 12:15:43;;;;;;;4.25;3.65;;;22.70;99.90;;;;;;6222996;28;89129;-65
2023/08/08 12:18:45;;;;;;;4.30;3.45;;;22.70;99.90;;;;;;6227792;28;89429;-65
2023/08/08 12:21:49;;;;;;;5.85;3.92;;;22.70;99.90;;;;;;6225556;27;89130;-66
2023/08/08 12:24:51;;;;;;;5.80;3.95;;;22.70;99.90;;;;;;6233644;27;89040;-65
2023/08/08 12:27:53;;;;;;;4.57;3.75;;;22.70;99.90;;;;;;6212232;28;88280;-65
2023/08/08 12:30:55;;;;;;;4.03;3.60;;;22.70;99.90;;;;;;6230555;28;89069;-65
2023/08/08 12:33:57;;;;;;;4.85;3.60;;;22.60;99.90;;;;;;6245975;28;89354;-66
2023/08/08 12:37:00;;;;;;;7.80;4.60;;;22.60;99.90;;;;;;6226040;27;89939;-66
2023/08/08 12:40:06;;;;;;;6.43;3.85;;;22.60;99.90;;;;;;6240688;27;89109;-65
2023/08/08 12:43:08;;;;;;;3.95;3.42;;;22.60;99.90;;;;;;6234754;28;89392;-65
2023/08/08 12:46:10;;;;;;;5.15;3.47;;;22.60;99.90;;;;;;6232189;28;87970;-65
2023/08/08 12:49:12;;;;;;;3.30;3.00;;;22.60;99.90;;;;;;6218182;28;90939;-65
2023/08/08 12:52:15;;;;;;;3.72;3.33;;;22.60;99.90;;;;;;6230573;28;89089;-65
2023/08/08 12:55:18;;;;;;;4.63;3.63;;;22.60;99.90;;;;;;6231955;28;89309;-65
2023/08/08 12:58:20;;;;;;;5.32;3.85;;;22.60;99.90;;;;;;6229399;28;88343;-65
2023/08/08 13:01:22;;;;;;;3.85;3.30;;;22.60;99.90;;;;;;6213488;28;89080;-65
2023/08/08 13:04:25;;;;;;;4.80;3.50;;;22.50;99.90;;;;;;6232040;27;89031;-65
2023/08/08 13:07:28;;;;;;;7.20;3.70;;;22.60;99.90;;;;;;6240153;28;90372;-65
2023/08/08 13:10:30;;;;;;;3.95;3.28;;;22.60;99.90;;;;;;6232213;28;88031;-65
2023/08/08 13:13:32;;;;;;;4.57;3.30;;;22.50;99.90;;;;;;6226895;28;89083;-65
2023/08/08 13:16:34;;;;;;;3.75;3.20;;;22.50;99.90;;;;;;6228946;28;89099;-65
2023/08/08 13:19:36;;;;;;;4.30;3.45;;;22.50;99.90;;;;;;6231800;28;89379;-66
2023/08/08 13:22:42;;;;;;;6.32;3.63;;;22.50;99.90;;;;;;6219769;28;89040;-65
2023/08/08 13:25:44;;;;;;;5.00;3.50;;;22.50;99.90;;;;;;6231428;28;88851;-65
2023/08/08 13:28:46;;;;;;;3.65;3.33;;;22.50;99.90;;;;;;6228266;28;88332;-65
2023/08/08 13:31:48;;;;;;;5.50;3.83;;;22.50;99.90;;;;;;6225811;27;89140;-65
2023/08/08 13:34:50;;;;;;;4.50;3.28;;;22.50;99.90;;;;;;6223409;27;89132;-66
2023/08/08 13:37:54;;;;;;;3.67;3.10;;;22.50;99.90;;;;;;6224002;27;91203;-65
2023/08/08 13:40:56;;;;;;;3.50;3.20;;;22.50;99.90;;;;;;6226273;28;89601;-65
2023/08/08 13:43:58;;;;;;;4.05;3.45;;;22.50;99.90;;;;;;6228146;28;89021;-65
2023/08/08 13:47:00;;;;;;;3.30;3.00;;;22.50;99.90;;;;;;6238045;27;88980;-65
2023/08/08 13:50:02;;;;;;;4.88;3.60;;;22.50;99.90;;;;;;6231445;28;89413;-66
2023/08/08 13:53:06;;;;;;;3.95;3.38;;;22.50;99.90;;;;;;6232303;28;89008;-66
2023/08/08 13:56:08;;;;;;;3.65;3.35;;;22.50;99.90;;;;;;6240610;28;88983;-66
2023/08/08 13:59:10;;;;;;;4.00;3.58;;;22.40;99.90;;;;;;6240420;27;88401;-65
2023/08/08 14:02:12;;;;;;;5.45;3.92;;;22.50;99.90;;;;;;6240018;28;89051;-66
2023/08/08 14:05:15;;;;;;;6.32;4.28;;;22.40;99.90;;;;;;6242726;28;89126;-67
2023/08/08 14:08:18;;;;;;;4.28;3.72;;;22.40;99.90;;;;;;6224254;28;90099;-66
2023/08/08 14:11:21;;;;;;;4.95;3.72;;;22.40;99.90;;;;;;6230841;28;89049;-66
2023/08/08 14:14:23;;;;;;;5.03;3.95;;;22.40;99.90;;;;;;6230690;28;89274;-66
2023/08/08 14:17:25;;;;;;;5.38;4.10;;;22.40;99.90;;;;;;6232923;28;89330;-66
2023/08/08 14:20:27;;;;;;;5.13;3.92;;;22.40;99.90;;;;;;6221590;28;89089;-65
2023/08/08 14:23:30;;;;;;;3.95;3.55;;;22.40;99.90;;;;;;6220886;28;89029;-65
2023/08/08 14:26:32;;;;;;;4.38;3.83;;;22.50;99.90;;;;;;6230020;28;89169;-65
2023/08/08 14:29:34;;;;;;;6.25;4.50;;;22.50;99.90;;;;;;6232327;28;88337;-65
2023/08/08 14:32:36;;;;;;;4.80;4.30;;;22.50;99.90;;;;;;6226677;28;89077;-65
2023/08/08 14:35:38;;;;;;;4.50;3.83;;;22.50;99.90;;;;;;6237585;27;89084;-65
2023/08/08 14:38:42;;;;;;;4.43;4.03;;;22.50;99.90;;;;;;6246653;27;89371;-65
2023/08/08 14:41:44;;;;;;;9.93;5.63;;;22.50;99.90;;;;;;6225108;28;89036;-65
2023/08/08 14:44:46;;;;;;;4.72;4.22;;;22.50;99.90;;;;;;6222634;28;89063;-65
2023/08/08 14:47:48;;;;;;;5.47;4.38;;;22.50;99.90;;;;;;6241281;28;89065;-65
2023/08/08 14:50:50;;;;;;;5.35;4.85;;;22.50;99.90;;;;;;6226555;28;89133;-66
2023/08/08 14:53:53;;;;;;;6.85;5.00;;;22.40;99.90;;;;;;6235779;28;89176;-66
2023/08/08 14:56:55;;;;;;;5.80;4.68;;;22.40;99.90;;;;;;6223796;28;89091;-66
2023/08/08 15:00:00;;;;;;;5.50;4.90;;;22.40;99.90;;;;;;6229633;28;88288;-67
2023/08/08 15:03:01;;;;;;;5.25;4.53;;;22.50;99.90;;;;;;6236318;28;89175;-66
2023/08/08 15:06:04;;;;;;;5.30;4.80;;;22.40;99.90;;;;;;6228162;28;87952;-67
2023/08/08 15:09:07;;;;;;;6.30;4.88;;;22.40;99.90;;;;;;6225308;28;90213;-66
2023/08/08 15:12:09;;;;;;;8.43;5.25;;;22.40;99.90;;;;;;6223199;28;89179;-66
2023/08/08 15:15:12;;;;;;;6.00;5.40;;;22.40;99.90;;;;;;6233523;28;88253;-66
2023/08/08 15:18:14;;;;;;;5.82;5.20;;;22.40;99.90;;;;;;6216989;28;88912;-66
2023/08/08 15:21:19;;;;;;;6.18;5.38;;;22.40;99.90;;;;;;6227284;28;89087;-66
2023/08/08 15:24:22;;;;;;;6.80;5.80;;;22.40;99.90;;;;;;6226146;28;89346;-66
2023/08/08 15:27:24;;;;;;;7.22;5.97;;;22.40;99.90;;;;;;6221787;27;89145;-66
2023/08/08 15:30:26;;;;;;;6.40;5.70;;;22.40;99.90;;;;;;6233121;28;87331;-66
2023/08/08 15:33:28;;;;;;;7.07;6.28;;;22.40;99.90;;;;;;6223614;28;89376;-66
2023/08/08 15:36:30;;;;;;;6.70;5.88;;;22.40;99.90;;;;;;6242279;28;89269;-66
2023/08/08 15:39:34;;;;;;;6.60;5.90;;;22.50;99.90;;;;;;6235275;28;90059;-66
2023/08/08 15:42:36;;;;;;;7.07;5.90;;;22.50;99.90;;;;;;6223543;28;89140;-65
2023/08/08 15:45:38;;;;;;;6.68;6.03;;;22.40;99.90;;;;;;6225896;28;89064;-66
2023/08/08 15:48:40;;;;;;;7.53;6.35;;;22.40;99.90;;;;;;6218962;28;89107;-65
2023/08/08 15:51:43;;;;;;;7.32;6.63;;;22.40;99.90;;;;;;6228356;27;89552;-65